Time;durP1;ratioP1;P1;durP2;ratioP2;P2;SDS_P1;SDS_P2;PMS_P1;PMS_P2;Temp;Humidity;BMP_temperature;BMP_pressure;BME280_temperature;BME280_humidity;BME280_pressure;Samples;Min_cycle;Max_cycle;Signal;HPM_P1;HPM_P2
2023/07/23 00:00:47;;;;;;;6.07;2.55;;;16.50;99.90;;;15.40;100.00;97349.22;4950465;28;20055;-77
2023/07/23 00:03:15;;;;;;;6.25;2.83;;;16.40;99.90;;;15.33;100.00;97343.56;4948339;28;20102;-77
2023/07/23 00:05:47;;;;;;;6.78;2.70;;;16.50;99.90;;;15.34;100.00;97342.59;4949615;28;20102;-77
2023/07/23 00:08:14;;;;;;;6.28;3.30;;;16.30;99.90;;;15.24;100.00;97344.97;4945320;28;20099;-77
2023/07/23 00:10:45;;;;;;;5.88;3.08;;;16.20;99.90;;;15.15;100.00;97349.97;4950960;28;20062;-76
2023/07/23 00:13:12;;;;;;;6.15;2.40;;;16.10;99.90;;;15.08;100.00;97348.72;4950442;28;20357;-76
2023/07/23 00:15:40;;;;;;;7.32;3.00;;;16.00;99.90;;;14.94;100.00;97344.34;4960321;28;20110;-76
2023/07/23 00:18:07;;;;;;;8.63;3.15;;;15.90;99.90;;;14.92;100.00;97344.44;4953833;28;20057;-77
2023/07/23 00:20:34;;;;;;;6.60;2.30;;;15.80;99.90;;;14.85;100.00;97349.22;4949388;28;20526;-77
2023/07/23 00:23:01;;;;;;;9.15;3.05;;;15.80;99.90;;;14.82;100.00;97351.19;4950748;28;20062;-77
2023/07/23 00:25:28;;;;;;;6.82;2.60;;;15.70;99.90;;;14.71;100.00;97354.50;4948004;28;20079;-76
2023/07/23 00:27:55;;;;;;;5.05;2.75;;;15.60;99.90;;;14.62;100.00;97349.84;4947746;28;20134;-76
2023/07/23 00:30:22;;;;;;;4.88;2.83;;;15.60;99.90;;;14.59;100.00;97356.06;4951491;28;20059;-77
2023/07/23 00:32:49;;;;;;;7.13;2.72;;;15.40;99.90;;;14.53;100.00;97358.19;4950420;28;20130;-77
2023/07/23 00:35:16;;;;;;;6.90;3.00;;;15.50;99.90;;;14.56;100.00;97352.84;4957082;28;20051;-77
2023/07/23 00:37:47;;;;;;;6.97;3.63;;;15.50;99.90;;;14.54;100.00;97352.91;4951960;28;20051;-77
2023/07/23 00:40:14;;;;;;;6.18;2.65;;;15.40;99.90;;;14.50;100.00;97347.94;4951370;28;20047;-77
2023/07/23 00:42:42;;;;;;;7.97;3.22;;;15.30;99.90;;;14.50;100.00;97347.94;4965918;28;20055;-76
2023/07/23 00:45:09;;;;;;;5.13;3.38;;;15.30;99.90;;;14.47;100.00;97351.59;4945960;28;20058;-77
2023/07/23 00:47:36;;;;;;;6.32;3.20;;;15.30;99.90;;;14.28;100.00;97345.81;4950811;28;20114;-77
2023/07/23 00:50:04;;;;;;;7.50;3.08;;;15.30;99.90;;;14.23;100.00;97346.97;4949400;28;20048;-78
2023/07/23 00:52:32;;;;;;;7.40;3.45;;;15.20;99.90;;;14.01;100.00;97346.56;4964543;28;20050;-77
2023/07/23 00:54:59;;;;;;;6.00;3.08;;;15.10;99.90;;;13.91;100.00;97346.28;4953911;28;20051;-77
2023/07/23 00:57:26;;;;;;;6.03;2.88;;;15.00;99.90;;;13.99;100.00;97353.66;4949751;28;20078;-77
2023/07/23 00:59:56;;;;;;;5.07;3.03;;;14.90;99.90;;;14.06;100.00;97354.13;4951259;28;20134;-77
2023/07/23 01:02:28;;;;;;;7.55;3.50;;;14.90;99.90;;;13.93;100.00;97346.19;4953916;28;20047;-77
2023/07/23 01:04:59;;;;;;;5.28;2.58;;;14.80;99.90;;;13.91;100.00;97350.66;4953162;28;20054;-77
2023/07/23 01:07:32;;;;;;;6.80;2.80;;;14.80;99.90;;;13.94;100.00;97345.28;4928760;28;20059;-77
2023/07/23 01:10:03;;;;;;;6.80;3.03;;;14.80;99.90;;;13.76;100.00;97347.19;4951848;28;20503;-77
2023/07/23 01:12:32;;;;;;;6.45;3.53;;;14.80;99.90;;;13.72;100.00;97346.53;4951250;28;20045;-77
2023/07/23 01:14:59;;;;;;;7.93;3.28;;;14.70;99.90;;;13.81;100.00;97352.97;4950194;28;20047;-78
2023/07/23 01:17:26;;;;;;;13.77;4.10;;;14.70;99.90;;;13.64;100.00;97345.28;4951134;28;20455;-77
2023/07/23 01:20:06;;;;;;;9.50;3.75;;;14.80;99.90;;;13.70;100.00;97347.56;4951996;28;20073;-77
2023/07/23 01:22:35;;;;;;;6.05;2.78;;;14.80;99.90;;;13.70;100.00;97344.94;4951755;28;20059;-77
2023/07/23 01:25:04;;;;;;;5.75;3.30;;;14.70;99.90;;;13.68;100.00;97342.41;4951935;28;20102;-77
2023/07/23 01:27:32;;;;;;;10.07;4.35;;;14.70;99.90;;;13.56;100.00;97340.53;4951789;28;20695;-77
2023/07/23 01:29:59;;;;;;;8.45;3.47;;;14.70;99.90;;;13.77;100.00;97339.25;4949666;28;20047;-77
2023/07/23 01:32:26;;;;;;;6.78;3.70;;;14.80;99.90;;;13.83;100.00;97338.06;4949437;28;20043;-77
2023/07/23 01:34:55;;;;;;;8.50;3.83;;;14.80;99.90;;;13.62;100.00;97334.13;4953105;28;20055;-76
2023/07/23 01:37:23;;;;;;;9.35;3.45;;;14.70;99.90;;;13.64;100.00;97343.56;4955528;28;20102;-77
2023/07/23 01:39:50;;;;;;;8.18;3.88;;;14.70;99.90;;;13.37;100.00;97338.16;4959141;28;20117;-78
2023/07/23 01:42:18;;;;;;;8.50;3.55;;;14.60;99.90;;;13.31;100.00;97339.34;4958018;28;20139;-78
2023/07/23 01:44:45;;;;;;;7.20;3.90;;;14.40;99.90;;;13.36;100.00;97339.94;4946276;28;20162;-77
2023/07/23 01:47:12;;;;;;;7.18;3.60;;;14.30;99.90;;;13.47;100.00;97341.06;4948609;28;20556;-77
2023/07/23 01:49:40;;;;;;;7.15;3.63;;;14.20;99.90;;;13.38;100.00;97330.25;4953661;28;20114;-77
2023/07/23 01:52:07;;;;;;;8.95;3.75;;;14.20;99.90;;;13.45;100.00;97333.31;4965786;28;20110;-77
2023/07/23 01:54:34;;;;;;;9.85;3.63;;;14.10;99.90;;;13.39;100.00;97318.91;4933729;28;20138;-76
2023/07/23 01:57:03;;;;;;;6.43;3.45;;;14.10;99.90;;;13.47;100.00;97322.81;4951039;28;20111;-76
2023/07/23 01:59:30;;;;;;;11.38;3.95;;;14.10;99.90;;;13.57;100.00;97324.81;4949467;28;20106;-77
2023/07/23 02:01:57;;;;;;;6.78;3.80;;;14.20;99.90;;;13.62;100.00;97319.31;4950530;28;20050;-77
2023/07/23 02:04:24;;;;;;;6.82;3.25;;;14.30;99.90;;;13.68;100.00;97305.91;4943994;28;20868;-77
2023/07/23 02:06:51;;;;;;;8.63;3.88;;;14.40;99.90;;;13.78;100.00;97308.81;4950946;28;20139;-77
2023/07/23 02:09:18;;;;;;;8.05;4.18;;;14.50;99.90;;;13.72;100.00;97307.41;4952398;28;20051;-76
2023/07/23 02:11:46;;;;;;;8.45;4.00;;;14.50;99.90;;;13.86;100.00;97303.97;4950908;28;20075;-77
2023/07/23 02:14:13;;;;;;;7.53;4.15;;;14.60;99.90;;;13.90;100.00;97294.19;4946568;28;20052;-77
2023/07/23 02:16:40;;;;;;;6.70;3.60;;;14.70;99.90;;;14.06;100.00;97287.09;4949126;28;20047;-77
2023/07/23 02:19:07;;;;;;;8.40;2.95;;;14.80;99.90;;;14.29;100.00;97282.25;4951577;28;20051;-77
2023/07/23 02:21:36;;;;;;;10.88;3.13;;;14.90;99.90;;;14.46;100.00;97275.94;4950338;28;20118;-77
2023/07/23 02:24:03;;;;;;;6.57;2.83;;;15.00;99.90;;;14.45;100.00;97267.28;4943972;28;20090;-77
2023/07/23 02:26:30;;;;;;;4.93;2.92;;;15.00;99.90;;;14.48;100.00;97263.63;4953507;28;20062;-77
2023/07/23 02:28:57;;;;;;;12.88;3.53;;;15.10;99.90;;;14.49;100.00;97260.94;4946654;28;20055;-77
2023/07/23 02:31:24;;;;;;;4.72;2.80;;;15.20;99.90;;;14.63;100.00;97254.88;4971089;28;20058;-77
2023/07/23 02:33:52;;;;;;;9.35;2.67;;;15.30;99.90;;;14.72;100.00;97253.44;4967193;28;20051;-76
2023/07/23 02:36:19;;;;;;;5.47;2.83;;;15.40;99.90;;;14.81;100.00;97258.06;4950556;28;20871;-77
2023/07/23 02:38:46;;;;;;;4.78;2.28;;;15.40;99.90;;;14.86;100.00;97256.00;4950031;28;20047;-77
2023/07/23 02:41:13;;;;;;;5.45;2.90;;;15.50;99.90;;;14.96;100.00;97251.00;4970399;28;20050;-77
2023/07/23 02:43:42;;;;;;;7.57;3.00;;;15.60;99.90;;;15.00;100.00;97255.09;4949173;28;20107;-77
2023/07/23 02:46:11;;;;;;;7.43;2.72;;;15.60;99.90;;;15.02;100.00;97248.81;4950594;28;20050;-77
2023/07/23 02:48:38;;;;;;;7.60;2.33;;;15.70;99.90;;;15.15;100.00;97251.47;4969196;28;20047;-77
2023/07/23 02:51:05;;;;;;;4.78;2.50;;;15.80;99.90;;;15.22;100.00;97254.53;4952651;28;20052;-77
2023/07/23 02:53:35;;;;;;;6.65;3.10;;;15.80;99.90;;;15.14;100.00;97254.19;4949604;28;20725;-77
2023/07/23 02:56:02;;;;;;;5.72;2.75;;;15.80;99.90;;;15.16;100.00;97260.13;4952387;28;20055;-77
2023/07/23 02:58:31;;;;;;;4.78;2.25;;;15.80;99.90;;;15.11;100.00;97259.63;4951011;28;20071;-77
2023/07/23 03:01:00;;;;;;;7.55;2.90;;;15.70;99.90;;;15.11;100.00;97257.00;4948701;28;20578;-77
2023/07/23 03:03:27;;;;;;;5.45;2.65;;;15.80;99.90;;;15.08;100.00;97257.22;4949856;28;20051;-76
2023/07/23 03:05:54;;;;;;;5.22;2.78;;;15.80;99.90;;;14.96;100.00;97262.31;4933576;28;20134;-77
2023/07/23 03:08:22;;;;;;;5.80;2.72;;;15.70;99.90;;;15.04;100.00;97261.78;4952123;28;20051;-77
2023/07/23 03:10:49;;;;;;;6.15;2.45;;;15.80;99.90;;;15.04;100.00;97261.78;4954055;28;20684;-77
2023/07/23 03:13:16;;;;;;;6.40;2.45;;;15.80;99.90;;;15.08;100.00;97265.06;4949121;28;20048;-77
2023/07/23 03:15:43;;;;;;;4.40;2.17;;;15.80;99.90;;;15.13;100.00;97263.81;4954322;28;20090;-76
2023/07/23 03:18:11;;;;;;;4.90;2.22;;;15.90;99.90;;;15.14;100.00;97264.63;4950911;28;20612;-77
2023/07/23 03:20:39;;;;;;;5.07;2.50;;;16.00;99.90;;;15.07;100.00;97264.19;4948902;28;20047;-77
2023/07/23 03:23:06;;;;;;;5.22;2.55;;;15.90;99.90;;;15.09;100.00;97264.94;4949893;28;20059;-77
2023/07/23 03:25:33;;;;;;;4.47;2.28;;;15.90;99.90;;;15.06;100.00;97265.16;4951109;28;20059;-77
2023/07/23 03:28:04;;;;;;;8.55;2.00;;;15.90;99.90;;;15.02;100.00;97271.50;4951800;28;20059;-77
2023/07/23 03:30:31;;;;;;;4.10;2.22;;;15.90;99.90;;;15.04;100.00;97267.03;4949108;28;20133;-76
2023/07/23 03:33:03;;;;;;;3.90;1.88;;;15.90;99.90;;;15.07;100.00;97269.41;4955202;28;20054;-77
2023/07/23 03:35:30;;;;;;;3.97;2.13;;;15.90;99.90;;;15.09;100.00;97274.56;4928919;28;20059;-77
2023/07/23 03:37:58;;;;;;;4.32;2.05;;;15.90;99.90;;;14.96;100.00;97277.13;4950390;28;20040;-77
2023/07/23 03:40:26;;;;;;;4.75;2.40;;;15.90;99.90;;;14.99;100.00;97269.09;4949192;28;20043;-77
2023/07/23 03:42:54;;;;;;;5.22;2.30;;;15.80;99.90;;;14.97;100.00;97274.41;4945442;28;20054;-77
2023/07/23 03:45:22;;;;;;;6.80;2.75;;;15.80;99.90;;;14.88;100.00;97274.19;4949229;28;20051;-77
2023/07/23 03:47:49;;;;;;;6.05;2.35;;;15.80;99.90;;;14.89;100.00;97268.00;4945761;28;20047;-77
2023/07/23 03:50:16;;;;;;;4.65;2.20;;;15.80;99.90;;;14.98;100.00;97270.03;4949808;28;20062;-76
2023/07/23 03:52:45;;;;;;;3.90;1.92;;;15.80;99.90;;;14.85;100.00;97273.44;4952328;28;20050;-77
2023/07/23 03:55:13;;;;;;;6.38;2.05;;;15.80;99.90;;;14.88;100.00;97276.81;4951351;28;20047;-77
2023/07/23 03:57:41;;;;;;;3.95;1.98;;;15.80;99.90;;;14.89;100.00;97279.28;4961438;28;20130;-77
2023/07/23 04:00:09;;;;;;;4.32;2.30;;;15.80;99.90;;;15.01;100.00;97273.28;4949309;28;20055;-77
2023/07/23 04:02:36;;;;;;;4.95;1.98;;;15.70;99.90;;;14.97;100.00;97269.19;4947635;28;20142;-77
2023/07/23 04:05:04;;;;;;;5.60;2.13;;;15.70;99.90;;;14.92;100.00;97278.28;4949215;28;20055;-77
2023/07/23 04:07:31;;;;;;;5.00;2.17;;;15.70;99.90;;;15.02;100.00;97277.56;4942431;28;20055;-77
2023/07/23 04:09:58;;;;;;;4.68;2.28;;;15.70;99.90;;;15.02;100.00;97280.19;4950396;28;20078;-77
2023/07/23 04:12:25;;;;;;;6.93;2.40;;;15.60;99.90;;;15.00;100.00;97276.00;4949679;28;20604;-77
2023/07/23 04:14:52;;;;;;;4.38;1.95;;;15.60;99.90;;;14.97;100.00;97271.81;4944076;28;20584;-77
2023/07/23 04:17:20;;;;;;;10.18;2.97;;;15.70;99.90;;;15.00;100.00;97265.53;4950252;28;20074;-77
2023/07/23 04:19:46;;;;;;;3.58;1.80;;;15.80;99.90;;;14.95;100.00;97280.69;4951027;28;20590;-77
2023/07/23 04:22:14;;;;;;;4.93;1.80;;;15.80;99.90;;;14.95;100.00;97285.91;4949145;28;20055;-77
2023/07/23 04:24:41;;;;;;;8.00;2.90;;;15.80;99.90;;;14.96;100.00;97272.75;4944831;28;20503;-77
2023/07/23 04:27:08;;;;;;;5.55;1.80;;;15.80;99.90;;;15.00;100.00;97291.69;4949416;28;20536;-77
2023/07/23 04:29:35;;;;;;;6.78;2.67;;;15.90;99.90;;;15.07;100.00;97285.09;4949389;28;20058;-77
2023/07/23 04:32:02;;;;;;;5.03;2.22;;;15.90;99.90;;;15.08;100.00;97278.13;4933100;28;20121;-77
2023/07/23 04:34:29;;;;;;;4.45;2.08;;;15.90;99.90;;;15.10;100.00;97289.28;4948716;28;20062;-77
2023/07/23 04:36:56;;;;;;;6.82;2.10;;;16.00;99.90;;;15.12;100.00;97295.25;4931840;28;20424;-77
2023/07/23 04:39:24;;;;;;;6.25;2.20;;;16.00;99.90;;;15.17;100.00;97285.38;4947514;28;20171;-77
2023/07/23 04:41:50;;;;;;;4.80;1.90;;;16.00;99.90;;;15.18;100.00;97289.63;4966274;28;20047;-77
2023/07/23 04:44:18;;;;;;;4.07;1.98;;;16.00;99.90;;;15.16;100.00;97289.72;4945060;28;20055;-76
2023/07/23 04:46:45;;;;;;;5.07;2.25;;;16.10;99.90;;;15.18;100.00;97285.25;4947401;28;20979;-77
2023/07/23 04:49:12;;;;;;;7.60;2.30;;;16.00;99.90;;;15.14;100.00;97286.38;4936981;28;20500;-77
2023/07/23 04:51:39;;;;;;;5.75;2.08;;;16.00;99.90;;;15.17;100.00;97285.38;4951989;28;20042;-77
2023/07/23 04:54:06;;;;;;;4.93;2.25;;;16.00;99.90;;;15.15;100.00;97282.00;4949470;28;20047;-77
2023/07/23 04:56:34;;;;;;;7.63;2.03;;;16.00;99.90;;;15.21;100.00;97286.81;4950758;28;20051;-77
2023/07/23 04:59:01;;;;;;;8.32;1.65;;;16.00;99.90;;;15.22;100.00;97280.66;4954649;28;20051;-77
2023/07/23 05:01:29;;;;;;;7.28;2.03;;;16.00;99.90;;;15.21;100.00;97292.03;4951524;28;20158;-76
2023/07/23 05:03:56;;;;;;;6.68;2.30;;;16.00;99.90;;;15.28;100.00;97285.50;4951880;28;20515;-76
2023/07/23 05:06:24;;;;;;;4.40;1.55;;;16.00;99.90;;;15.30;100.00;97280.16;4950720;28;20062;-76
2023/07/23 05:08:51;;;;;;;4.13;1.63;;;16.10;99.90;;;15.26;100.00;97276.91;4950031;28;20576;-77
2023/07/23 05:11:18;;;;;;;5.30;2.40;;;16.10;99.90;;;15.30;100.00;97277.53;4943829;28;20154;-76
2023/07/23 05:13:46;;;;;;;3.33;1.63;;;16.10;99.90;;;15.41;100.00;97267.19;4945266;28;20059;-77
2023/07/23 05:16:14;;;;;;;5.75;1.95;;;16.20;99.90;;;15.45;100.00;97269.50;4950609;28;20508;-77
2023/07/23 05:18:43;;;;;;;3.38;1.80;;;16.20;99.90;;;15.44;100.00;97259.13;4950154;28;20487;-77
2023/07/23 05:21:12;;;;;;;5.63;2.28;;;16.20;99.90;;;15.54;100.00;97265.44;4948811;28;20730;-76
2023/07/23 05:23:41;;;;;;;5.22;2.28;;;16.30;99.90;;;15.66;100.00;97263.75;4953053;28;20051;-77
2023/07/23 05:26:09;;;;;;;3.75;1.75;;;16.30;99.90;;;15.66;100.00;97261.97;4952063;28;20047;-77
2023/07/23 05:28:36;;;;;;;2.85;1.65;;;16.40;99.90;;;15.76;100.00;97262.22;4948127;28;20161;-77
2023/07/23 05:31:03;;;;;;;6.20;1.73;;;16.50;99.90;;;15.84;100.00;97267.75;4951945;28;20102;-77
2023/07/23 05:33:30;;;;;;;4.60;2.03;;;16.60;99.90;;;15.84;100.00;97259.91;4954093;28;20039;-76
2023/07/23 05:35:58;;;;;;;3.08;1.50;;;16.70;99.90;;;15.93;100.00;97261.06;4929242;28;20098;-77
2023/07/23 05:38:26;;;;;;;9.77;1.92;;;16.70;99.90;;;16.01;100.00;97263.13;4956330;28;20089;-77
2023/07/23 05:40:56;;;;;;;9.52;2.15;;;16.80;99.90;;;16.14;100.00;97257.88;4953415;28;20073;-77
2023/07/23 05:43:23;;;;;;;3.92;1.95;;;16.90;99.90;;;16.18;100.00;97260.19;4952900;28;20193;-77
2023/07/23 05:45:58;;;;;;;6.13;1.73;;;16.90;99.90;;;16.33;100.00;97260.03;4951933;28;20059;-77
2023/07/23 05:48:25;;;;;;;4.18;1.70;;;17.00;99.90;;;16.33;100.00;97260.88;4949924;28;20106;-77
2023/07/23 05:50:52;;;;;;;2.92;1.75;;;17.00;99.90;;;16.36;100.00;97267.69;4951039;28;20536;-77
2023/07/23 05:53:19;;;;;;;3.58;1.52;;;17.20;99.90;;;16.37;100.00;97264.13;4967956;28;20062;-77
2023/07/23 05:55:46;;;;;;;3.78;1.77;;;17.20;99.90;;;16.33;100.00;97262.66;4948333;28;20051;-77
2023/07/23 05:58:13;;;;;;;4.55;2.00;;;17.20;99.90;;;16.41;100.00;97276.06;4947977;28;20051;-77
2023/07/23 06:00:41;;;;;;;4.80;2.50;;;17.20;99.90;;;16.51;100.00;97269.19;4953981;28;20059;-77
2023/07/23 06:03:08;;;;;;;3.85;1.88;;;17.20;99.90;;;16.48;100.00;97278.13;4929770;29;20058;-77
2023/07/23 06:05:36;;;;;;;5.07;1.52;;;17.20;99.90;;;16.64;100.00;97262.13;4961054;28;20077;-77
2023/07/23 06:08:04;;;;;;;2.72;1.50;;;17.30;99.90;;;16.70;100.00;97261.69;4949939;28;20134;-77
2023/07/23 06:10:32;;;;;;;4.25;1.55;;;17.30;99.90;;;16.74;100.00;97267.56;4950928;28;20059;-77
2023/07/23 06:12:59;;;;;;;3.20;1.35;;;17.50;99.90;;;16.81;100.00;97270.59;4963229;28;20472;-77
2023/07/23 06:15:26;;;;;;;4.93;1.60;;;17.50;99.90;;;16.81;100.00;97268.81;4949152;28;20051;-76
2023/07/23 06:17:53;;;;;;;4.18;1.50;;;17.50;99.90;;;16.83;100.00;97263.44;4950419;28;20396;-77
2023/07/23 06:20:20;;;;;;;3.00;1.35;;;17.50;99.90;;;16.85;100.00;97266.78;4963640;28;20643;-77
2023/07/23 06:22:48;;;;;;;5.13;1.88;;;17.50;99.90;;;16.84;100.00;97278.25;4953088;28;20138;-77
2023/07/23 06:25:15;;;;;;;3.75;1.55;;;17.50;99.90;;;16.96;100.00;97266.84;4941799;28;20631;-77
2023/07/23 06:27:42;;;;;;;4.07;1.50;;;17.60;99.90;;;16.96;100.00;97263.41;4953662;28;20049;-77
2023/07/23 06:30:09;;;;;;;5.93;1.73;;;17.60;99.90;;;16.99;100.00;97273.66;4950301;28;20059;-76
2023/07/23 06:32:36;;;;;;;3.05;1.45;;;17.60;99.90;;;17.07;100.00;97263.44;4952575;28;20051;-77
2023/07/23 06:35:10;;;;;;;4.30;1.17;;;17.70;99.90;;;17.06;100.00;97274.88;4951309;28;20055;-77
2023/07/23 06:37:40;;;;;;;4.88;1.65;;;17.70;99.90;;;17.16;100.00;97275.88;4940793;28;20074;-77
2023/07/23 06:40:08;;;;;;;4.18;1.65;;;17.90;99.90;;;17.21;100.00;97272.91;4943887;28;20039;-77
2023/07/23 06:42:35;;;;;;;5.35;1.25;;;17.80;99.90;;;17.16;100.00;97280.28;4926420;28;20432;-77
2023/07/23 06:45:03;;;;;;;4.72;1.90;;;17.90;99.90;;;17.05;100.00;97267.97;4950262;28;20051;-77
2023/07/23 06:47:30;;;;;;;5.43;1.40;;;17.90;99.90;;;17.22;100.00;97267.56;4950469;28;20520;-76
2023/07/23 06:49:57;;;;;;;4.35;1.50;;;18.00;99.90;;;17.33;100.00;97264.13;4937392;28;20142;-77
2023/07/23 06:52:24;;;;;;;3.50;1.48;;;17.90;99.90;;;17.22;100.00;97275.44;4948990;28;20134;-77
2023/07/23 06:54:51;;;;;;;2.90;1.23;;;17.90;99.90;;;17.40;100.00;97264.50;4949682;28;20079;-77
2023/07/23 06:57:18;;;;;;;5.70;1.52;;;18.00;99.90;;;17.43;100.00;97270.34;4951120;28;20082;-76
2023/07/23 06:59:46;;;;;;;3.42;1.50;;;18.10;99.90;;;17.44;100.00;97265.94;4953930;28;20051;-77
2023/07/23 07:02:13;;;;;;;5.43;1.30;;;18.10;99.90;;;17.46;100.00;97264.88;4946641;28;20058;-77
2023/07/23 07:04:40;;;;;;;4.13;1.27;;;18.10;99.90;;;17.45;100.00;97268.47;4951609;28;20047;-77
2023/07/23 07:07:07;;;;;;;3.38;1.38;;;18.00;99.90;;;17.52;100.00;97251.28;4945881;28;20058;-77
2023/07/23 07:09:34;;;;;;;2.33;1.27;;;18.10;99.90;;;17.51;100.00;97252.22;4934219;28;20082;-77
2023/07/23 07:12:02;;;;;;;1.98;1.30;;;18.20;99.90;;;17.64;100.00;97261.81;4942697;28;20959;-77
2023/07/23 07:14:29;;;;;;;2.80;1.08;;;18.20;99.90;;;17.66;100.00;97249.41;4944847;28;20775;-76
2023/07/23 07:16:57;;;;;;;5.72;1.50;;;18.20;99.90;;;17.73;100.00;97261.09;4949782;28;20047;-76
2023/07/23 07:19:24;;;;;;;4.05;1.15;;;18.20;99.90;;;17.92;100.00;97263.19;4946618;28;20436;-77
2023/07/23 07:21:51;;;;;;;2.75;1.30;;;18.30;99.90;;;17.84;100.00;97262.94;4947588;28;20094;-76
2023/07/23 07:24:18;;;;;;;2.95;1.10;;;18.30;99.90;;;18.03;100.00;97255.31;4942390;28;20081;-77
2023/07/23 07:26:45;;;;;;;2.17;1.08;;;18.50;99.90;;;17.95;100.00;97247.19;4951357;28;20147;-79
2023/07/23 07:29:12;;;;;;;2.55;1.20;;;18.50;99.90;;;18.03;100.00;97241.34;4950658;28;20083;-77
2023/07/23 07:31:39;;;;;;;4.93;1.55;;;18.70;99.90;;;18.21;100.00;97236.44;4952977;28;20078;-77
2023/07/23 07:34:06;;;;;;;3.70;1.23;;;18.70;99.90;;;18.07;100.00;97235.72;4950722;28;20069;-77
2023/07/23 07:36:38;;;;;;;2.83;1.30;;;18.80;99.90;;;17.94;100.00;97248.97;4951282;28;20051;-77
2023/07/23 07:39:07;;;;;;;2.50;1.00;;;18.80;99.90;;;17.93;100.00;97278.00;4951818;28;20075;-77
2023/07/23 07:41:34;;;;;;;2.92;1.20;;;18.70;99.90;;;17.94;100.00;97259.47;4954399;28;20070;-76
2023/07/23 07:44:01;;;;;;;4.47;1.00;;;18.60;99.90;;;18.16;100.00;97248.13;4956656;28;20680;-77
2023/07/23 07:46:28;;;;;;;3.80;1.30;;;18.70;99.90;;;18.37;100.00;97276.31;4954098;28;20122;-76
2023/07/23 07:48:56;;;;;;;2.22;0.90;;;18.70;99.90;;;18.47;100.00;97239.59;4939363;28;20051;-77
2023/07/23 07:51:23;;;;;;;1.75;1.00;;;18.90;99.90;;;18.44;100.00;97259.09;4960757;28;20051;-77
2023/07/23 07:53:50;;;;;;;2.97;1.00;;;18.90;99.90;;;18.44;100.00;97264.34;4953940;28;20051;-77
2023/07/23 07:56:18;;;;;;;2.55;1.15;;;18.90;99.90;;;18.47;100.00;97235.19;4961321;28;20047;-78
2023/07/23 07:58:46;;;;;;;2.17;0.80;;;18.90;99.90;;;18.30;100.00;97249.66;4961755;28;20075;-77
2023/07/23 08:01:15;;;;;;;4.57;0.98;;;18.90;99.90;;;18.41;100.00;97248.00;4960714;28;20069;-77
2023/07/23 08:03:42;;;;;;;1.20;0.82;;;18.90;99.90;;;18.76;100.00;97253.03;4964135;28;20122;-77
2023/07/23 08:06:12;;;;;;;1.83;0.80;;;18.90;99.90;;;18.82;100.00;97221.03;4950735;28;20058;-77
2023/07/23 08:08:41;;;;;;;4.07;1.10;;;19.10;99.90;;;18.70;100.00;97225.47;4934108;28;20051;-77
2023/07/23 08:11:11;;;;;;;4.80;1.35;;;19.10;99.90;;;18.85;100.00;97246.22;4951482;28;20531;-77
2023/07/23 08:13:39;;;;;;;5.45;1.08;;;19.20;99.90;;;18.95;100.00;97247.13;4948197;28;20082;-77
2023/07/23 08:16:07;;;;;;;1.77;0.80;;;19.40;99.90;;;19.19;100.00;97239.88;4951795;28;20051;-77
2023/07/23 08:18:36;;;;;;;1.75;0.90;;;19.60;99.90;;;19.06;100.00;97256.78;4954855;28;20157;-78
2023/07/23 08:21:07;;;;;;;2.05;1.00;;;19.60;99.90;;;19.17;100.00;97265.47;4951141;28;20432;-76
2023/07/23 08:23:35;;;;;;;1.88;0.80;;;19.60;99.90;;;19.25;100.00;97261.34;4958226;28;20551;-77
2023/07/23 08:26:05;;;;;;;2.03;0.80;;;19.70;99.90;;;19.46;100.00;97230.63;4950269;28;20105;-77
2023/07/23 08:28:38;;;;;;;2.38;0.90;;;19.80;99.90;;;19.69;100.00;97251.59;4954980;28;20579;-77
2023/07/23 08:31:06;;;;;;;1.75;1.00;;;19.90;99.90;;;20.10;100.00;97237.47;4953000;28;20047;-76
2023/07/23 08:33:33;;;;;;;3.13;1.00;;;20.30;99.90;;;20.25;100.00;97217.72;4954019;28;20059;-78
2023/07/23 08:36:01;;;;;;;2.25;1.02;;;20.50;99.90;;;20.34;100.00;97226.59;4957526;28;20122;-78
2023/07/23 08:38:29;;;;;;;2.05;0.88;;;20.60;99.90;;;20.42;100.00;97210.94;4955493;28;20051;-77
2023/07/23 08:41:03;;;;;;;4.00;1.00;;;20.50;99.90;;;20.15;100.00;97219.47;4953269;28;20051;-78
2023/07/23 08:44:01;;;;;;;3.08;0.98;;;20.60;99.90;;;20.60;100.00;97228.78;4956600;28;20074;-77
2023/07/23 08:46:28;;;;;;;2.53;0.95;;;20.80;99.90;;;21.68;100.00;97225.94;4955644;28;20125;-76
2023/07/23 08:48:58;;;;;;;2.13;0.90;;;21.20;99.90;;;20.60;100.00;97212.94;4935733;28;20051;-77
2023/07/23 08:51:46;;;;;;;1.67;0.93;;;21.30;99.90;;;21.06;100.00;97230.72;4948168;28;20075;-77
2023/07/23 08:54:15;;;;;;;3.03;1.00;;;21.10;99.90;;;21.34;100.00;97230.84;4940062;28;20457;-77
2023/07/23 08:56:43;;;;;;;2.38;0.80;;;21.40;99.90;;;21.66;100.00;97219.13;4957642;28;20062;-78
2023/07/23 08:59:12;;;;;;;5.32;0.80;;;21.80;99.90;;;21.82;100.00;97222.00;4960247;28;20055;-77
2023/07/23 09:01:41;;;;;;;6.97;1.08;;;22.00;99.90;;;21.65;100.00;97223.59;4960290;28;20433;-77
2023/07/23 09:04:13;;;;;;;4.28;1.10;;;22.20;99.90;;;22.16;100.00;97231.19;4933544;28;20054;-74
2023/07/23 09:06:43;;;;;;;3.50;0.85;;;21.80;99.90;;;22.26;100.00;97227.56;4950630;28;20051;-72
2023/07/23 09:09:13;;;;;;;1.58;0.75;;;22.50;99.90;;;22.57;100.00;97194.66;4953939;28;20055;-74
2023/07/23 09:11:41;;;;;;;1.20;0.70;;;23.20;99.90;;;22.54;100.00;97187.88;4949676;28;20113;-74
2023/07/23 09:14:13;;;;;;;6.43;0.80;;;23.20;99.90;;;21.98;100.00;97205.53;4949891;28;20142;-74
2023/07/23 09:16:45;;;;;;;4.68;0.80;;;23.00;99.90;;;21.60;100.00;97217.91;4935244;28;20091;-73
2023/07/23 09:19:26;;;;;;;3.03;0.98;;;22.10;99.90;;;21.47;100.00;97217.38;4951114;28;20047;-74
2023/07/23 09:21:59;;;;;;;5.07;0.80;;;22.10;99.90;;;21.96;100.00;97233.06;4968120;28;20059;-72
2023/07/23 09:24:33;;;;;;;1.73;0.70;;;22.20;99.90;;;21.75;100.00;97244.69;4964310;28;20488;-72
2023/07/23 09:27:02;;;;;;;4.50;0.93;;;22.00;99.90;;;21.18;100.00;97201.56;4936928;28;20078;-75
2023/07/23 09:29:38;;;;;;;1.50;0.80;;;21.90;99.90;;;22.13;100.00;97212.00;4949675;28;20417;-73
2023/07/23 09:32:23;;;;;;;7.10;1.30;;;22.10;99.90;;;22.17;100.00;97193.19;4949069;28;20149;-73
2023/07/23 09:34:55;;;;;;;2.13;0.90;;;22.90;99.90;;;21.59;100.00;97200.38;4964165;28;20500;-72
2023/07/23 09:37:22;;;;;;;2.13;0.70;;;22.70;99.90;;;21.75;100.00;97215.63;4951101;28;20101;-74
2023/07/23 09:39:55;;;;;;;5.95;0.90;;;22.40;99.90;;;21.77;100.00;97211.03;4946649;28;20047;-74
2023/07/23 09:42:23;;;;;;;4.43;0.80;;;22.20;99.90;;;21.96;100.00;97218.03;4953289;28;20050;-72
2023/07/23 09:44:51;;;;;;;1.90;0.73;;;22.50;99.90;;;22.18;100.00;97202.81;4953626;28;20149;-74
2023/07/23 09:47:24;;;;;;;7.38;0.82;;;22.40;99.90;;;22.79;100.00;97255.09;4950584;28;20428;-70
2023/07/23 09:49:54;;;;;;;3.13;0.80;;;22.90;99.90;;;23.10;100.00;97185.91;4952924;28;20464;-71
2023/07/23 09:52:23;;;;;;;2.40;0.60;;;23.30;99.90;;;23.23;100.00;97210.16;4950393;28;20118;-72
2023/07/23 09:54:53;;;;;;;4.25;0.77;;;23.20;99.90;;;23.51;100.00;97204.72;4936194;28;20055;-71
2023/07/23 09:57:20;;;;;;;2.28;0.95;;;23.40;99.90;;;22.79;100.00;97207.47;4948679;28;20035;-73
2023/07/23 09:59:48;;;;;;;2.53;0.80;;;23.20;99.90;;;22.50;100.00;97186.50;4945525;28;20752;-73
2023/07/23 10:02:15;;;;;;;7.13;1.08;;;23.10;99.90;;;22.11;100.00;97203.38;4950262;28;20044;-73
2023/07/23 10:04:43;;;;;;;1.92;0.68;;;23.00;99.90;;;22.43;100.00;97199.47;4932295;28;20145;-73
2023/07/23 10:07:10;;;;;;;3.97;1.10;;;22.80;99.90;;;22.11;100.00;97198.09;4951974;28;20778;-73
2023/07/23 10:09:39;;;;;;;3.55;0.90;;;22.80;99.90;;;22.51;100.00;97201.38;4950359;28;20130;-74
2023/07/23 10:12:06;;;;;;;2.67;1.00;;;22.90;99.90;;;22.43;100.00;97196.00;4934959;28;20541;-73
2023/07/23 10:14:33;;;;;;;3.85;1.13;;;23.00;99.90;;;22.97;100.00;97197.69;4963742;28;20043;-73
2023/07/23 10:17:02;;;;;;;2.03;0.80;;;23.20;99.90;;;23.13;100.00;97201.50;4948488;28;20754;-72